Terminal Aerodrome Forecast
Issued by NWS Albuquerque, NM

Home | Current Version | Previous Version | Text Only | Print | Product List | Glossary On
Versions: 1 2 3 4 5 6 7 8 9 10 11 12
861
FTUS45 KABQ 230540
TAFABQ
TAF
KABQ 230540Z 2306/2406 17008KT P6SM BKN110
     FM231200 14013KT P6SM VCSH OVC080
      TEMPO 2315/2318 -SHRA OVC050
     FM231800 18018G28KT P6SM VCSH BKN070
     FM232200 15012KT P6SM BKN080=

USA.gov is the U.S. government's official web portal to all federal, state and local government web resources and services.